createdAt,value
2018-06-14T00:00:57.124Z,99.99
2018-06-14T00:01:57.125Z,99.99
2018-06-14T00:02:57.150Z,99.99
2018-06-14T00:03:57.106Z,99.99
2018-06-14T00:04:57.101Z,99.99
2018-06-14T00:05:57.100Z,99.99
2018-06-14T00:06:57.095Z,99.99
2018-06-14T00:07:57.085Z,99.99
2018-06-14T00:08:57.081Z,99.99
2018-06-14T00:09:57.087Z,99.99
2018-06-14T00:10:57.072Z,99.99
2018-06-14T00:11:57.065Z,99.99
2018-06-14T00:12:57.059Z,99.99
2018-06-14T00:13:57.052Z,99.99
2018-06-14T00:14:57.056Z,99.99
2018-06-14T00:15:57.054Z,99.99
2018-06-14T00:16:57.039Z,99.99
2018-06-14T00:17:57.031Z,99.99
2018-06-14T00:18:57.027Z,99.99
2018-06-14T00:19:57.017Z,99.99
2018-06-14T00:20:57.017Z,99.99
2018-06-14T00:21:57.010Z,99.99
2018-06-14T00:22:57.011Z,99.99
2018-06-14T00:23:56.995Z,99.99
2018-06-14T00:24:56.991Z,99.99
2018-06-14T00:25:56.987Z,99.99
2018-06-14T00:26:57.011Z,99.99
2018-06-14T00:27:56.977Z,99.99
2018-06-14T00:28:56.971Z,99.99
2018-06-14T00:29:56.965Z,99.99
2018-06-14T00:30:56.958Z,99.99
2018-06-14T00:31:56.988Z,99.99
2018-06-14T00:32:56.947Z,99.99
2018-06-14T00:33:56.986Z,99.99
2018-06-14T00:34:56.935Z,99.99
2018-06-14T00:35:56.934Z,99.99
2018-06-14T00:36:56.919Z,99.99
2018-06-14T00:37:56.915Z,99.99
2018-06-14T00:38:56.907Z,99.99
2018-06-14T00:39:56.904Z,99.99
2018-06-14T00:40:56.897Z,99.99
2018-06-14T00:41:56.896Z,99.99
2018-06-14T00:42:56.885Z,99.99
2018-06-14T00:43:56.878Z,99.99
2018-06-14T00:44:56.886Z,99.99
2018-06-14T00:45:56.865Z,99.99
2018-06-14T00:46:56.861Z,99.99
2018-06-14T00:47:56.856Z,99.99
2018-06-14T00:48:56.853Z,99.99
2018-06-14T00:49:56.851Z,99.99
2018-06-14T00:50:56.873Z,99.99
2018-06-14T00:51:56.831Z,99.99
2018-06-14T00:52:56.833Z,99.99
2018-06-14T00:53:56.818Z,99.99
2018-06-14T00:54:56.818Z,99.99
2018-06-14T00:55:56.812Z,99.99
2018-06-14T00:56:56.800Z,99.99
2018-06-14T00:57:56.818Z,99.99
2018-06-14T00:58:56.787Z,99.99
2018-06-14T00:59:56.781Z,99.99
2018-06-14T01:00:56.789Z,99.99
2018-06-14T01:01:56.768Z,99.99
2018-06-14T01:02:56.763Z,99.99
2018-06-14T01:03:56.756Z,99.99
2018-06-14T01:04:56.756Z,99.99
2018-06-14T01:05:56.749Z,99.99
2018-06-14T01:06:56.741Z,99.99
2018-06-14T01:07:56.731Z,99.99
2018-06-14T01:08:56.727Z,99.99
2018-06-14T01:09:56.719Z,99.99
2018-06-14T01:10:56.716Z,99.99
2018-06-14T01:11:56.713Z,99.99
2018-06-14T01:12:56.715Z,99.99
2018-06-14T01:13:56.729Z,99.99
2018-06-14T01:14:56.718Z,99.99
2018-06-14T01:15:56.684Z,99.99
2018-06-14T01:16:56.681Z,99.99
2018-06-14T01:17:56.680Z,99.99
2018-06-14T01:18:56.667Z,99.99
2018-06-14T01:19:56.672Z,99.99
2018-06-14T01:20:56.678Z,99.99
2018-06-14T01:21:56.646Z,99.99
2018-06-14T01:22:56.640Z,99.99
2018-06-14T01:23:56.635Z,99.99
2018-06-14T01:24:56.628Z,99.99
2018-06-14T01:25:56.623Z,99.99
2018-06-14T01:26:56.626Z,99.99
2018-06-14T01:27:56.610Z,99.99
2018-06-14T01:28:56.622Z,99.99
2018-06-14T01:29:56.599Z,99.99
2018-06-14T01:30:56.592Z,99.99
2018-06-14T01:31:56.588Z,99.99
2018-06-14T01:32:56.587Z,99.99
2018-06-14T01:33:56.574Z,99.99
2018-06-14T01:34:56.573Z,99.99
2018-06-14T01:35:56.562Z,99.99
2018-06-14T01:36:56.557Z,99.99
2018-06-14T01:37:56.585Z,99.99
2018-06-14T01:38:56.543Z,99.99
2018-06-14T01:39:56.538Z,99.99
2018-06-14T01:40:56.533Z,99.99
2018-06-14T01:41:56.530Z,99.99
2018-06-14T01:42:56.528Z,99.99
2018-06-14T01:43:56.512Z,99.99
2018-06-14T01:44:56.532Z,99.99
2018-06-14T01:45:56.508Z,99.99
2018-06-14T01:46:56.507Z,99.99
2018-06-14T01:47:56.490Z,99.99
2018-06-14T01:48:56.494Z,99.99
2018-06-14T01:49:56.485Z,99.99
2018-06-14T01:50:56.474Z,99.99
2018-06-14T01:51:56.483Z,99.99
2018-06-14T01:52:56.464Z,99.99
2018-06-14T01:53:56.462Z,99.99
2018-06-14T01:54:56.446Z,99.99
2018-06-14T01:55:56.444Z,99.99
2018-06-14T01:56:56.441Z,99.99
2018-06-14T01:57:56.431Z,99.99
2018-06-14T01:58:56.428Z,99.99
2018-06-14T01:59:56.412Z,99.99
2018-06-14T02:00:56.409Z,99.99
2018-06-14T02:01:56.406Z,99.99
2018-06-14T02:02:56.408Z,99.99
2018-06-14T02:03:56.393Z,99.99
2018-06-14T02:04:56.381Z,99.99
2018-06-14T02:05:56.375Z,99.99
2018-06-14T02:06:56.378Z,99.99
2018-06-14T02:07:56.363Z,99.99
2018-06-14T02:08:56.366Z,99.99
2018-06-14T02:09:56.350Z,99.99
2018-06-14T02:10:56.350Z,99.99
2018-06-14T02:11:56.345Z,99.99
2018-06-14T02:12:56.335Z,99.99
2018-06-14T02:13:56.326Z,99.99
2018-06-14T02:14:56.316Z,99.99
2018-06-14T02:15:56.341Z,99.99
2018-06-14T02:16:56.305Z,99.99
2018-06-14T02:17:56.303Z,99.99
2018-06-14T02:18:56.299Z,99.99
2018-06-14T02:19:56.285Z,99.99
2018-06-14T02:20:56.281Z,99.99
2018-06-14T02:21:56.273Z,99.99
2018-06-14T02:22:56.288Z,99.99
2018-06-14T02:23:56.273Z,99.99
2018-06-14T02:24:56.256Z,99.99
2018-06-14T02:25:56.252Z,99.99
2018-06-14T02:26:56.240Z,99.99
2018-06-14T02:27:56.241Z,99.99
2018-06-14T02:28:56.227Z,99.99
2018-06-14T02:29:56.233Z,99.99
2018-06-14T02:30:56.227Z,99.99
2018-06-14T02:31:56.215Z,99.99
2018-06-14T02:32:56.203Z,99.99
2018-06-14T02:33:56.198Z,99.99
2018-06-14T02:34:56.189Z,99.99
2018-06-14T02:35:56.182Z,99.99
2018-06-14T02:36:56.182Z,99.99
2018-06-14T02:37:56.183Z,99.99
2018-06-14T02:38:56.166Z,99.99
2018-06-14T02:39:56.163Z,99.99
2018-06-14T02:40:56.149Z,99.99
2018-06-14T02:41:56.146Z,99.99
2018-06-14T02:42:56.135Z,99.99
2018-06-14T02:43:56.135Z,99.99
2018-06-14T02:44:56.132Z,99.99
2018-06-14T02:45:56.116Z,99.99
2018-06-14T02:46:56.109Z,99.99
2018-06-14T02:47:56.102Z,99.99
2018-06-14T02:48:56.105Z,99.99
2018-06-14T02:49:56.097Z,99.99
2018-06-14T02:50:56.080Z,99.99
2018-06-14T02:51:56.079Z,99.99
2018-06-14T02:52:56.077Z,99.99
2018-06-14T02:53:56.070Z,99.99
2018-06-14T02:54:56.054Z,99.99
2018-06-14T02:55:56.048Z,99.99
2018-06-14T02:56:56.048Z,99.99
2018-06-14T02:57:56.043Z,99.99
2018-06-14T02:58:56.029Z,99.99
2018-06-14T02:59:56.029Z,99.99
2018-06-14T03:00:56.014Z,99.99
2018-06-14T03:01:56.020Z,99.99
2018-06-14T03:02:56.005Z,99.99
2018-06-14T03:03:55.992Z,99.99
2018-06-14T03:04:55.990Z,99.99
2018-06-14T03:05:55.985Z,99.99
2018-06-14T03:06:55.976Z,99.99
2018-06-14T03:07:55.990Z,99.99
2018-06-14T03:08:55.970Z,99.99
2018-06-14T03:09:55.946Z,99.99
2018-06-14T03:10:55.940Z,99.99
2018-06-14T03:11:55.938Z,99.99
2018-06-14T03:12:55.932Z,99.99
2018-06-14T03:13:55.920Z,99.99
2018-06-14T03:14:55.912Z,99.99
2018-06-14T03:15:55.921Z,99.99
2018-06-14T03:16:55.900Z,99.99
2018-06-14T03:17:55.890Z,99.99
2018-06-14T03:18:55.896Z,99.99
2018-06-14T03:19:55.887Z,99.99
2018-06-14T03:20:55.865Z,99.99
2018-06-14T03:21:55.860Z,99.99
2018-06-14T03:22:55.854Z,99.99
2018-06-14T03:23:55.845Z,99.99
2018-06-14T03:24:55.838Z,99.99
2018-06-14T03:25:55.839Z,99.99
2018-06-14T03:26:55.822Z,99.99
2018-06-14T03:27:55.825Z,99.99
2018-06-14T03:28:55.815Z,99.99
2018-06-14T03:29:55.801Z,99.99
2018-06-14T03:30:55.800Z,99.99
2018-06-14T03:31:55.794Z,99.99
2018-06-14T03:32:55.786Z,99.99
2018-06-14T03:33:55.781Z,99.99
2018-06-14T03:34:55.775Z,99.99
2018-06-14T03:35:55.758Z,99.99
2018-06-14T03:36:55.752Z,99.99
2018-06-14T03:37:55.750Z,99.99
2018-06-14T03:38:55.737Z,99.99
2018-06-14T03:39:55.734Z,99.99
2018-06-14T03:40:55.730Z,99.99
2018-06-14T03:41:55.726Z,99.99
2018-06-14T03:42:55.706Z,99.99
2018-06-14T03:43:55.699Z,99.99
2018-06-14T03:44:55.691Z,99.99
2018-06-14T03:45:55.694Z,99.99
2018-06-14T03:46:55.677Z,99.99
2018-06-14T03:47:55.674Z,99.99
2018-06-14T03:48:55.663Z,99.99
2018-06-14T03:49:55.671Z,99.99
2018-06-14T03:50:55.654Z,99.99
2018-06-14T03:51:55.676Z,99.99
2018-06-14T03:52:55.633Z,99.99
2018-06-14T03:53:55.628Z,99.99
2018-06-14T03:54:55.624Z,99.99
2018-06-14T03:55:55.615Z,99.99
2018-06-14T03:56:55.614Z,99.99
2018-06-14T03:57:55.607Z,99.99
2018-06-14T03:58:55.592Z,99.99
2018-06-14T03:59:55.593Z,99.99
2018-06-14T04:00:55.580Z,99.99
2018-06-14T04:01:55.577Z,99.99
2018-06-14T04:02:55.564Z,99.99
2018-06-14T04:03:55.612Z,99.99
2018-06-14T04:04:55.554Z,99.99
2018-06-14T04:05:55.547Z,99.99
2018-06-14T04:06:55.540Z,99.99
2018-06-14T04:07:55.529Z,99.99
2018-06-14T04:08:55.526Z,99.99
2018-06-14T04:09:55.515Z,99.99
2018-06-14T04:10:55.508Z,99.99
2018-06-14T04:11:55.499Z,99.99
2018-06-14T04:12:55.502Z,99.99
2018-06-14T04:13:55.489Z,99.99
2018-06-14T04:14:55.478Z,99.99
2018-06-14T04:15:55.471Z,99.99
2018-06-14T04:16:55.467Z,99.99
2018-06-14T04:17:55.473Z,99.99
2018-06-14T04:18:55.508Z,99.99
2018-06-14T04:19:55.447Z,97.23
2018-06-14T04:20:55.439Z,95.27
2018-06-14T04:21:55.430Z,91.30
2018-06-14T04:22:55.429Z,89.52
2018-06-14T04:23:55.426Z,86.69
2018-06-14T04:24:55.417Z,85.25
2018-06-14T04:25:55.407Z,83.48
2018-06-14T04:26:55.401Z,81.70
2018-06-14T04:27:55.397Z,80.01
2018-06-14T04:28:55.391Z,79.14
2018-06-14T04:29:55.388Z,77.36
2018-06-14T04:30:55.383Z,76.15
2018-06-14T04:31:55.378Z,75.38
2018-06-14T04:32:55.376Z,73.56
2018-06-14T04:33:55.372Z,73.69
2018-06-14T04:34:55.372Z,72.44
2018-06-14T04:35:55.369Z,72.29
2018-06-14T04:36:55.362Z,70.94
2018-06-14T04:37:55.361Z,69.98
2018-06-14T04:38:55.357Z,69.69
2018-06-14T04:39:55.357Z,70.11
2018-06-14T04:40:55.364Z,68.19
2018-06-14T04:41:55.356Z,68.41
2018-06-14T04:42:55.358Z,66.65
2018-06-14T04:43:55.357Z,66.36
2018-06-14T04:44:55.347Z,66.39
2018-06-14T04:45:55.395Z,65.81
2018-06-14T04:46:55.344Z,64.95
2018-06-14T04:47:55.349Z,64.76
2018-06-14T04:48:55.352Z,65.24
2018-06-14T04:49:55.343Z,64.12
2018-06-14T04:50:55.344Z,63.89
2018-06-14T04:51:55.342Z,64.12
2018-06-14T04:52:55.342Z,63.82
2018-06-14T04:53:55.345Z,64.59
2018-06-14T04:54:55.341Z,64.25
2018-06-14T04:55:55.344Z,63.28
2018-06-14T04:56:55.345Z,62.22
2018-06-14T04:57:55.345Z,60.68
2018-06-14T04:58:55.349Z,62.32
2018-06-14T04:59:55.346Z,61.83
2018-06-14T05:00:55.348Z,63.41
2018-06-14T05:01:55.348Z,62.15
2018-06-14T05:02:55.359Z,61.51
2018-06-14T05:03:55.353Z,60.45
2018-06-14T05:04:55.367Z,59.39
2018-06-14T05:05:55.360Z,60.58
2018-06-14T05:06:55.358Z,59.32
2018-06-14T05:07:55.371Z,58.68
2018-06-14T05:08:55.364Z,58.29
2018-06-14T05:09:55.366Z,57.32
2018-06-14T05:10:55.367Z,55.98
2018-06-14T05:11:55.378Z,55.98
2018-06-14T05:12:55.373Z,55.94
2018-06-14T05:13:55.386Z,55.85
2018-06-14T05:14:55.382Z,56.43
2018-06-14T05:15:55.389Z,57.52
2018-06-14T05:16:55.383Z,57.29
2018-06-14T05:17:55.404Z,57.43
2018-06-14T05:18:55.394Z,59.62
2018-06-14T05:19:55.391Z,60.87
2018-06-14T05:20:55.398Z,61.00
2018-06-14T05:21:55.397Z,64.12
2018-06-14T05:22:55.390Z,66.14
2018-06-14T05:23:55.392Z,66.20
2018-06-14T05:24:55.397Z,68.41
2018-06-14T05:25:55.396Z,66.77
2018-06-14T05:26:55.399Z,69.24
2018-06-14T05:27:55.400Z,69.78
2018-06-14T05:28:55.401Z,71.19
2018-06-14T05:29:55.391Z,72.68
2018-06-14T05:30:55.386Z,74.51
2018-06-14T05:31:55.407Z,75.56
2018-06-14T05:32:55.385Z,75.27
2018-06-14T05:33:55.397Z,75.56
2018-06-14T05:34:55.381Z,74.51
2018-06-14T05:35:55.391Z,75.33
2018-06-14T05:36:55.380Z,75.48
2018-06-14T05:37:55.375Z,76.82
2018-06-14T05:38:55.373Z,78.74
2018-06-14T05:39:55.384Z,76.82
2018-06-14T05:40:55.374Z,78.45
2018-06-14T05:41:55.368Z,79.41
2018-06-14T05:42:55.364Z,78.93
2018-06-14T05:43:55.365Z,78.74
2018-06-14T05:44:55.357Z,81.71
2018-06-14T05:45:55.355Z,78.36
2018-06-14T05:46:55.366Z,78.11
2018-06-14T05:47:55.350Z,76.29
2018-06-14T05:48:55.345Z,78.69
2018-06-14T05:49:55.344Z,77.53
2018-06-14T05:50:55.344Z,76.44
2018-06-14T05:51:55.339Z,77.31
2018-06-14T05:52:55.333Z,76.06
2018-06-14T05:53:55.332Z,78.49
2018-06-14T05:54:55.324Z,78.78
2018-06-14T05:55:55.321Z,78.49
2018-06-14T05:56:55.319Z,76.39
2018-06-14T05:57:55.314Z,75.81
2018-06-14T05:58:55.320Z,75.85
2018-06-14T05:59:55.311Z,75.37
2018-06-14T06:00:55.307Z,76.42
2018-06-14T06:01:55.299Z,75.90
2018-06-14T06:02:55.349Z,76.44
2018-06-14T06:03:55.305Z,77.59
2018-06-14T06:04:55.296Z,78.64
2018-06-14T06:05:55.290Z,78.64
2018-06-14T06:06:55.282Z,78.97
2018-06-14T06:07:55.277Z,78.20
2018-06-14T06:08:55.282Z,77.44
2018-06-14T06:09:55.271Z,77.76
2018-06-14T06:10:55.274Z,76.42
2018-06-14T06:11:55.293Z,75.08
2018-06-14T06:12:55.268Z,75.08
2018-06-14T06:13:55.261Z,75.71
2018-06-14T06:14:55.253Z,76.48
2018-06-14T06:15:55.264Z,77.73
2018-06-14T06:16:55.246Z,76.57
2018-06-14T06:17:55.242Z,77.25
2018-06-14T06:18:55.237Z,77.53
2018-06-14T06:19:55.293Z,77.44
2018-06-14T06:20:55.230Z,78.20
2018-06-14T06:21:55.227Z,76.71
2018-06-14T06:22:55.220Z,75.95
2018-06-14T06:23:55.219Z,75.65
2018-06-14T06:24:55.214Z,75.56
2018-06-14T06:25:55.220Z,75.18
2018-06-14T06:26:55.207Z,75.08
2018-06-14T06:27:55.213Z,76.81
2018-06-14T06:28:55.209Z,76.14
2018-06-14T06:29:55.197Z,77.51
2018-06-14T06:30:55.199Z,75.02
2018-06-14T06:31:55.195Z,75.98
2018-06-14T06:32:55.183Z,75.89
2018-06-14T06:33:55.181Z,74.58
2018-06-14T06:34:55.177Z,73.35
2018-06-14T06:35:55.174Z,76.27
2018-06-14T06:36:55.183Z,75.27
2018-06-14T06:37:55.175Z,75.65
2018-06-14T06:38:55.165Z,76.90
2018-06-14T06:39:55.167Z,76.23
2018-06-14T06:40:55.167Z,75.75
2018-06-14T06:41:55.163Z,75.18
2018-06-14T06:42:55.157Z,75.40
2018-06-14T06:43:55.154Z,75.70
2018-06-14T06:44:55.151Z,75.79
2018-06-14T06:45:55.141Z,73.77
2018-06-14T06:46:55.136Z,75.65
2018-06-14T06:47:55.134Z,76.07
2018-06-14T06:48:55.128Z,76.37
2018-06-14T06:49:55.127Z,75.31
2018-06-14T06:50:55.122Z,75.12
2018-06-14T06:51:55.120Z,73.68
2018-06-14T06:52:55.124Z,74.64
2018-06-14T06:53:55.126Z,73.39
2018-06-14T06:54:55.108Z,75.12
2018-06-14T06:55:55.106Z,74.06
2018-06-14T06:56:55.101Z,73.97
2018-06-14T06:57:55.104Z,73.33
2018-06-14T06:58:55.147Z,75.40
2018-06-14T06:59:55.091Z,74.44
2018-06-14T07:00:55.088Z,73.43
2018-06-14T07:01:55.087Z,73.14
2018-06-14T07:02:55.096Z,72.66
2018-06-14T07:03:55.080Z,72.37
2018-06-14T07:04:55.075Z,72.66
2018-06-14T07:05:55.090Z,72.95
2018-06-14T07:06:55.068Z,73.04
2018-06-14T07:07:55.065Z,72.56
2018-06-14T07:08:55.065Z,72.63
2018-06-14T07:09:55.061Z,73.20
2018-06-14T07:10:55.070Z,73.49
2018-06-14T07:11:55.111Z,75.06
2018-06-14T07:12:55.050Z,73.33
2018-06-14T07:13:55.061Z,71.12
2018-06-14T07:14:55.047Z,72.28
2018-06-14T07:15:55.039Z,72.56
2018-06-14T07:16:55.036Z,72.95
2018-06-14T07:17:55.036Z,72.95
2018-06-14T07:18:55.030Z,72.47
2018-06-14T07:19:55.037Z,72.56
2018-06-14T07:20:55.025Z,73.52
2018-06-14T07:21:55.140Z,72.95
2018-06-14T07:22:55.026Z,72.85
2018-06-14T07:23:55.019Z,73.14
2018-06-14T07:24:55.012Z,72.50
2018-06-14T07:25:55.022Z,72.47
2018-06-14T07:26:55.019Z,73.56
2018-06-14T07:27:55.002Z,74.81
2018-06-14T07:28:55.000Z,73.27
2018-06-14T07:29:54.998Z,72.85
2018-06-14T07:30:54.995Z,72.47
2018-06-14T07:31:54.989Z,73.62
2018-06-14T07:32:54.988Z,73.52
2018-06-14T07:33:54.990Z,74.35
2018-06-14T07:34:54.980Z,74.73
2018-06-14T07:35:54.977Z,74.68
2018-06-14T07:36:54.973Z,74.29
2018-06-14T07:37:54.975Z,74.58
2018-06-14T07:38:54.969Z,76.50
2018-06-14T07:39:54.965Z,75.38
2018-06-14T07:40:54.975Z,75.38
2018-06-14T07:41:54.964Z,73.85
2018-06-14T07:42:54.968Z,73.21
2018-06-14T07:43:54.961Z,72.16
2018-06-14T07:44:54.950Z,71.00
2018-06-14T07:45:54.951Z,70.17
2018-06-14T07:46:54.945Z,66.77
2018-06-14T07:47:54.941Z,67.83
2018-06-14T07:48:54.938Z,67.45
2018-06-14T07:49:54.936Z,65.14
2018-06-14T07:50:54.930Z,66.68
2018-06-14T07:51:54.930Z,68.54
2018-06-14T07:52:54.930Z,66.68
2018-06-14T07:53:54.933Z,67.19
2018-06-14T07:54:54.919Z,67.58
2018-06-14T07:55:54.922Z,65.11
2018-06-14T07:56:54.916Z,63.95
2018-06-14T07:57:54.920Z,63.95
2018-06-14T07:58:54.916Z,63.38
2018-06-14T07:59:54.917Z,63.86
2018-06-14T08:00:54.905Z,62.83
2018-06-14T08:01:54.910Z,61.87
2018-06-14T08:02:54.905Z,62.83
2018-06-14T08:03:54.902Z,63.28
2018-06-14T08:04:54.898Z,63.38
2018-06-14T08:05:54.895Z,63.48
2018-06-14T08:06:54.898Z,63.09
2018-06-14T08:07:54.894Z,63.22
2018-06-14T08:08:54.900Z,62.54
2018-06-14T08:09:54.898Z,62.54
2018-06-14T08:10:54.887Z,62.83
2018-06-14T08:11:54.888Z,62.54
2018-06-14T08:12:54.880Z,61.29
2018-06-14T08:13:54.877Z,61.19
2018-06-14T08:14:54.873Z,61.07
2018-06-14T08:15:54.878Z,61.10
2018-06-14T08:16:54.880Z,62.32
2018-06-14T08:17:54.884Z,61.10
2018-06-14T08:18:54.962Z,61.97
2018-06-14T08:19:54.871Z,61.87
2018-06-14T08:20:54.944Z,61.65
2018-06-14T08:21:54.863Z,61.65
2018-06-14T08:22:54.997Z,62.13
2018-06-14T08:23:54.917Z,61.84
2018-06-14T08:24:54.871Z,62.23
2018-06-14T08:25:54.858Z,62.23
2018-06-14T08:26:54.863Z,62.23
2018-06-14T08:27:54.852Z,62.41
2018-06-14T08:28:54.859Z,62.13
2018-06-14T08:29:54.861Z,60.78
2018-06-14T08:30:54.846Z,60.72
2018-06-14T08:31:54.845Z,61.10
2018-06-14T08:32:54.847Z,60.55
2018-06-14T08:33:54.846Z,60.46
2018-06-14T08:34:54.846Z,59.78
2018-06-14T08:35:54.841Z,58.15
2018-06-14T08:36:54.837Z,55.57
2018-06-14T08:37:54.833Z,55.96
2018-06-14T08:38:54.831Z,57.37
2018-06-14T08:39:54.832Z,57.76
2018-06-14T08:40:54.833Z,58.89
2018-06-14T08:41:54.835Z,59.66
2018-06-14T08:42:54.830Z,59.17
2018-06-14T08:43:54.837Z,59.75
2018-06-14T08:44:54.870Z,60.52
2018-06-14T08:45:54.825Z,60.42
2018-06-14T08:46:54.827Z,59.34
2018-06-14T08:47:54.826Z,60.33
2018-06-14T08:48:54.817Z,60.62
2018-06-14T08:49:54.816Z,60.24
2018-06-14T08:50:54.813Z,60.24
2018-06-14T08:51:54.811Z,60.55
2018-06-14T08:52:54.819Z,58.24
2018-06-14T08:53:54.814Z,56.29
2018-06-14T08:54:54.821Z,56.96
2018-06-14T08:55:54.808Z,56.58
2018-06-14T08:56:54.803Z,56.20
2018-06-14T08:57:54.800Z,57.15
2018-06-14T08:58:54.799Z,57.35
2018-06-14T08:59:54.799Z,57.57
2018-06-14T09:00:54.801Z,56.60
2018-06-14T09:01:54.794Z,57.76
2018-06-14T09:02:54.792Z,57.89
2018-06-14T09:03:54.800Z,56.60
2018-06-14T09:04:54.795Z,55.93
2018-06-14T09:05:54.791Z,54.68
2018-06-14T09:06:54.787Z,55.45
2018-06-14T09:07:54.785Z,55.74
2018-06-14T09:08:54.785Z,54.68
2018-06-14T09:09:54.792Z,55.16
2018-06-14T09:10:54.783Z,56.32
2018-06-14T09:11:54.784Z,55.83
2018-06-14T09:12:54.785Z,58.79
2018-06-14T09:13:54.779Z,59.66
2018-06-14T09:14:54.779Z,60.24
2018-06-14T09:15:54.782Z,60.81
2018-06-14T09:16:54.775Z,60.72
2018-06-14T09:17:54.777Z,61.16
2018-06-14T09:18:54.773Z,61.16
2018-06-14T09:19:54.769Z,60.69
2018-06-14T09:20:54.769Z,59.63
2018-06-14T09:21:54.764Z,59.44
2018-06-14T09:22:54.775Z,59.24
2018-06-14T09:23:54.769Z,59.44
2018-06-14T09:24:54.757Z,59.82
2018-06-14T09:25:54.757Z,60.97
2018-06-14T09:26:54.756Z,60.21
2018-06-14T09:27:54.753Z,60.88
2018-06-14T09:28:54.752Z,61.65
2018-06-14T09:29:54.766Z,61.26
2018-06-14T09:30:54.758Z,61.26
2018-06-14T09:31:54.753Z,62.03
2018-06-14T09:32:54.743Z,62.03
2018-06-14T09:33:54.750Z,60.78
2018-06-14T09:34:54.739Z,61.07
2018-06-14T09:35:54.745Z,60.59
2018-06-14T09:36:54.734Z,60.78
2018-06-14T09:37:54.732Z,60.14
2018-06-14T09:38:54.745Z,59.17
2018-06-14T09:39:54.733Z,59.27
2018-06-14T09:40:54.735Z,60.14
2018-06-14T09:41:54.725Z,59.59
2018-06-14T09:42:54.803Z,59.78
2018-06-14T09:43:54.729Z,59.30
2018-06-14T09:44:54.719Z,59.30
2018-06-14T09:45:54.719Z,57.69
2018-06-14T09:46:54.720Z,57.50
2018-06-14T09:47:54.715Z,57.69
2018-06-14T09:48:54.719Z,57.95
2018-06-14T09:49:54.715Z,58.15
2018-06-14T09:50:54.722Z,57.67
2018-06-14T09:51:54.710Z,58.05
2018-06-14T09:52:54.706Z,58.44
2018-06-14T09:53:54.714Z,58.24
2018-06-14T09:54:54.703Z,57.95
2018-06-14T09:55:54.703Z,58.27
2018-06-14T09:56:54.699Z,57.89
2018-06-14T09:57:54.698Z,56.76
2018-06-14T09:58:54.705Z,56.09
2018-06-14T09:59:54.704Z,55.99
2018-06-14T10:00:54.700Z,56.21
2018-06-14T10:01:54.694Z,55.15
2018-06-14T10:02:54.692Z,54.18
2018-06-14T10:03:54.702Z,54.47
2018-06-14T10:04:54.694Z,54.86
2018-06-14T10:05:54.691Z,54.57
2018-06-14T10:06:54.701Z,54.86
2018-06-14T10:07:54.692Z,54.57
2018-06-14T10:08:54.688Z,54.76
2018-06-14T10:09:54.692Z,53.87
2018-06-14T10:10:54.695Z,54.44
2018-06-14T10:11:54.691Z,53.19
2018-06-14T10:12:54.686Z,53.09
2018-06-14T10:13:54.696Z,53.09
2018-06-14T10:14:54.680Z,52.64
2018-06-14T10:15:54.679Z,53.80
2018-06-14T10:16:54.679Z,54.86
2018-06-14T10:17:54.681Z,54.11
2018-06-14T10:18:54.683Z,52.09
2018-06-14T10:19:54.675Z,51.53
2018-06-14T10:20:54.676Z,51.73
2018-06-14T10:21:54.680Z,51.15
2018-06-14T10:22:54.675Z,50.76
2018-06-14T10:23:54.678Z,51.05
2018-06-14T10:24:54.685Z,51.15
2018-06-14T10:25:54.675Z,51.56
2018-06-14T10:26:54.674Z,51.15
2018-06-14T10:27:54.672Z,51.15
2018-06-14T10:28:54.681Z,51.44
2018-06-14T10:29:54.684Z,51.34
2018-06-14T10:30:54.671Z,50.38
2018-06-14T10:31:54.679Z,50.76
2018-06-14T10:32:54.676Z,49.10
2018-06-14T10:33:54.684Z,50.45
2018-06-14T10:34:54.678Z,51.70
2018-06-14T10:35:54.669Z,52.19
2018-06-14T10:36:54.669Z,51.32
2018-06-14T10:37:54.671Z,50.64
2018-06-14T10:38:54.670Z,50.74
2018-06-14T10:39:54.677Z,51.51
2018-06-14T10:40:54.677Z,52.35
2018-06-14T10:41:54.675Z,51.39
2018-06-14T10:42:54.678Z,52.73
2018-06-14T10:43:54.673Z,53.31
2018-06-14T10:44:54.673Z,53.03
2018-06-14T10:45:54.667Z,52.61
2018-06-14T10:46:54.666Z,55.02
2018-06-14T10:47:54.667Z,54.54
2018-06-14T10:48:54.668Z,55.31
2018-06-14T10:49:54.666Z,53.17
2018-06-14T10:50:54.675Z,53.55
2018-06-14T10:51:54.672Z,54.61
2018-06-14T10:52:54.664Z,56.15
2018-06-14T10:53:54.671Z,55.29
2018-06-14T10:54:54.676Z,55.09
2018-06-14T10:55:54.663Z,53.84
2018-06-14T10:56:54.665Z,54.52
2018-06-14T10:57:54.661Z,55.26
2018-06-14T10:58:54.660Z,56.22
2018-06-14T10:59:54.670Z,57.47
2018-06-14T11:00:54.668Z,58.34
2018-06-14T11:01:54.657Z,56.82
2018-06-14T11:02:54.656Z,56.15
2018-06-14T11:03:54.655Z,56.92
2018-06-14T11:04:54.663Z,54.61
2018-06-14T11:05:54.706Z,54.35
2018-06-14T11:06:54.654Z,53.96
2018-06-14T11:07:54.651Z,55.31
2018-06-14T11:08:54.658Z,53.09
2018-06-14T11:09:54.649Z,54.06
2018-06-14T11:10:54.653Z,55.51
2018-06-14T11:11:54.648Z,55.70
2018-06-14T11:12:54.647Z,53.89
2018-06-14T11:13:54.646Z,52.25
2018-06-14T11:14:54.647Z,54.18
2018-06-14T11:15:54.649Z,52.06
2018-06-14T11:16:54.655Z,51.41
2018-06-14T11:17:54.641Z,53.05
2018-06-14T11:18:54.645Z,52.47
2018-06-14T11:19:54.650Z,54.60
2018-06-14T11:20:54.644Z,52.23
2018-06-14T11:21:54.647Z,54.93
2018-06-14T11:22:54.645Z,56.11
2018-06-14T11:23:54.652Z,55.44
2018-06-14T11:24:54.645Z,54.76
2018-06-14T11:25:54.644Z,53.03
2018-06-14T11:26:54.638Z,52.09
2018-06-14T11:27:54.636Z,50.45
2018-06-14T11:28:54.635Z,50.64
2018-06-14T11:29:54.666Z,50.84
2018-06-14T11:30:54.638Z,51.03
2018-06-14T11:31:54.634Z,50.45
2018-06-14T11:32:54.635Z,50.45
2018-06-14T11:33:54.633Z,49.00
2018-06-14T11:34:54.634Z,48.88
2018-06-14T11:35:54.632Z,49.55
2018-06-14T11:36:54.630Z,50.74
2018-06-14T11:37:54.636Z,51.12
2018-06-14T11:38:54.630Z,51.99
2018-06-14T11:39:54.632Z,50.74
2018-06-14T11:40:54.631Z,49.77
2018-06-14T11:41:54.631Z,50.62
2018-06-14T11:42:54.634Z,50.81
2018-06-14T11:43:54.630Z,51.29
2018-06-14T11:44:54.633Z,50.62
2018-06-14T11:45:54.631Z,51.20
2018-06-14T11:46:54.629Z,51.39
2018-06-14T11:47:54.628Z,51.68
2018-06-14T11:48:54.629Z,51.20
2018-06-14T11:49:54.627Z,51.58
2018-06-14T11:50:54.625Z,50.54
2018-06-14T11:51:54.636Z,51.61
2018-06-14T11:52:54.629Z,50.86
2018-06-14T11:53:54.629Z,50.67
2018-06-14T11:54:54.626Z,50.38
2018-06-14T11:55:54.631Z,50.21
2018-06-14T11:56:54.634Z,50.13
2018-06-14T11:57:54.627Z,49.07
2018-06-14T11:58:54.639Z,49.27
2018-06-14T11:59:54.630Z,49.07
2018-06-14T12:00:54.634Z,49.55
2018-06-14T12:01:54.627Z,49.27
2018-06-14T12:02:54.621Z,49.27
2018-06-14T12:03:54.626Z,48.11
2018-06-14T12:04:54.629Z,47.60
2018-06-14T12:05:54.626Z,48.54
2018-06-14T12:06:54.623Z,49.12
2018-06-14T12:07:54.621Z,49.48
2018-06-14T12:08:54.622Z,50.06
2018-06-14T12:09:54.627Z,50.54
2018-06-14T12:10:54.627Z,51.00
2018-06-14T12:11:54.631Z,50.93
2018-06-14T12:12:54.634Z,50.84
2018-06-14T12:13:54.622Z,49.99
2018-06-14T12:14:54.622Z,49.90
2018-06-14T12:15:54.631Z,49.12
2018-06-14T12:16:54.631Z,48.06
2018-06-14T12:17:54.634Z,47.60
2018-06-14T12:18:54.625Z,48.18
2018-06-14T12:19:54.624Z,46.92
2018-06-14T12:20:54.623Z,47.80
2018-06-14T12:21:54.621Z,48.57
2018-06-14T12:22:54.621Z,47.43
2018-06-14T12:23:54.629Z,48.49
2018-06-14T12:24:54.623Z,48.97
2018-06-14T12:25:54.635Z,48.23
2018-06-14T12:26:54.622Z,47.55
2018-06-14T12:27:54.621Z,47.26
2018-06-14T12:28:54.623Z,47.26
2018-06-14T12:29:54.629Z,46.10
2018-06-14T12:30:54.622Z,45.72
2018-06-14T12:31:54.637Z,45.91
2018-06-14T12:32:54.635Z,46.30
2018-06-14T12:33:54.625Z,44.84
2018-06-14T12:34:54.632Z,45.14
2018-06-14T12:35:54.631Z,44.36
2018-06-14T12:36:54.627Z,44.17
2018-06-14T12:37:54.629Z,44.94
2018-06-14T12:38:54.634Z,45.81
2018-06-14T12:39:54.630Z,45.81
2018-06-14T12:40:54.629Z,45.04
2018-06-14T12:41:54.633Z,44.15
2018-06-14T12:42:54.630Z,43.78
2018-06-14T12:43:54.647Z,44.07
2018-06-14T12:44:54.634Z,44.07
2018-06-14T12:45:54.640Z,44.07
2018-06-14T12:46:54.634Z,43.88
2018-06-14T12:47:54.634Z,43.88
2018-06-14T12:48:54.637Z,44.36
2018-06-14T12:49:54.639Z,44.34
2018-06-14T12:50:54.644Z,45.11
2018-06-14T12:51:54.637Z,45.98
2018-06-14T12:52:54.639Z,46.17